Cedar Lake, Texas
Current Conditions -  °F | °C
As of 5:53 AM on Saturday 25 Oct 2014 (Local Time) from KLBX Reporting Station
Clear Clear  
Wind Chill: 55°   Ceiling: Unl
Heat Index: 55°   Visibility: 8mi
Dew Point: 55°   Wind: 3mph
Humidity: 100%   Direction: 10°N
Pressure: 30.13"   Gusts: NA
Location:  28.8997°N, 95.7887°W
Report Text: KLBX 251053Z AUTO 01003KT 8SM CLR 13/13 A3013 RMK AO2 SLP202 T01280128
Loading
Personal Weather Stations






























Interactive Weather Map New forecast layout! Learn more

10-Day Weather Forecast

Advertisements
Track Severe Weather on mobile